createdAt,value
2019-05-30T00:00:42.780Z,100242.25
2019-05-30T00:03:17.114Z,100241.83
2019-05-30T00:05:51.413Z,100242.51
2019-05-30T00:08:25.602Z,100242.19
2019-05-30T00:11:00.624Z,100237.84
2019-05-30T00:13:34.549Z,100233.69
2019-05-30T00:16:08.259Z,100232.35
2019-05-30T00:18:42.086Z,100236.89
2019-05-30T00:21:16.275Z,100237.75
2019-05-30T00:23:50.670Z,100239.11
2019-05-30T00:26:24.298Z,100243.47
2019-05-30T00:28:58.615Z,100241.13
2019-05-30T00:31:32.300Z,100240.63
2019-05-30T00:34:06.539Z,100239.53
2019-05-30T00:36:40.761Z,100246.39
2019-05-30T00:39:14.998Z,100246.64
2019-05-30T00:41:48.751Z,100252.95
2019-05-30T00:44:22.995Z,100250.94
2019-05-30T00:46:58.053Z,100247.09
2019-05-30T00:49:32.651Z,100251.44
2019-05-30T00:52:06.994Z,100256.05
2019-05-30T00:54:41.215Z,100258.76
2019-05-30T00:57:14.994Z,100253.20
2019-05-30T00:59:48.719Z,100253.82
2019-05-30T01:02:23.740Z,100256.31
2019-05-30T01:04:58.854Z,100264.03
2019-05-30T01:07:33.170Z,100264.19
2019-05-30T01:10:07.451Z,100260.58
2019-05-30T01:12:41.518Z,100264.28
2019-05-30T01:15:15.835Z,100269.80
2019-05-30T01:17:49.668Z,100263.00
2019-05-30T01:20:23.756Z,100265.77
2019-05-30T01:22:59.096Z,100262.19
2019-05-30T01:25:33.751Z,100268.30
2019-05-30T01:28:07.861Z,100269.98
2019-05-30T01:30:41.550Z,100267.03
2019-05-30T01:33:14.852Z,100263.77
2019-05-30T01:35:48.199Z,100265.36
2019-05-30T01:38:22.074Z,100267.36
2019-05-30T01:40:56.236Z,100269.77
2019-05-30T01:43:30.192Z,100270.59
2019-05-30T01:46:04.384Z,100271.77
2019-05-30T01:48:38.593Z,100271.92
2019-05-30T01:51:12.843Z,100275.76
2019-05-30T01:53:46.748Z,100273.91
2019-05-30T01:56:20.940Z,100269.39
2019-05-30T01:58:54.778Z,100275.23
2019-05-30T02:01:29.002Z,100275.63
2019-05-30T02:04:03.302Z,100276.78
2019-05-30T02:06:38.285Z,100278.97
2019-05-30T02:09:12.144Z,100278.95
2019-05-30T02:11:46.313Z,100284.22
2019-05-30T02:14:20.553Z,100289.13
2019-05-30T02:16:54.644Z,100302.02
2019-05-30T02:19:28.483Z,100301.83
2019-05-30T02:22:02.304Z,100298.99
2019-05-30T02:24:36.020Z,100304.66
2019-05-30T02:27:10.408Z,100303.72
2019-05-30T02:29:44.242Z,100301.72
2019-05-30T02:32:17.277Z,100304.80
2019-05-30T02:34:51.557Z,100313.75
2019-05-30T02:37:25.355Z,100312.55
2019-05-30T02:40:02.892Z,100317.91
2019-05-30T02:42:35.390Z,100317.91
2019-05-30T02:45:11.949Z,100327.11
2019-05-30T02:47:45.036Z,100327.25
2019-05-30T02:50:19.130Z,100327.09
2019-05-30T02:52:53.025Z,100328.47
2019-05-30T02:55:26.803Z,100333.09
2019-05-30T02:58:01.348Z,100333.80
2019-05-30T03:00:38.935Z,100335.37
2019-05-30T03:03:14.598Z,100340.20
2019-05-30T03:05:48.967Z,100344.14
2019-05-30T03:08:22.770Z,100343.38
2019-05-30T03:10:57.082Z,100357.77
2019-05-30T03:13:30.386Z,100356.36
2019-05-30T03:16:05.025Z,100356.09
2019-05-30T03:18:39.573Z,100355.92
2019-05-30T03:21:15.595Z,100355.09
2019-05-30T03:23:49.832Z,100362.18
2019-05-30T03:26:24.007Z,100367.97
2019-05-30T03:28:57.826Z,100367.88
2019-05-30T03:31:35.053Z,100362.18
2019-05-30T03:34:18.031Z,100366.36
2019-05-30T03:36:45.605Z,100359.94
2019-05-30T03:39:19.509Z,100366.89
2019-05-30T03:41:53.738Z,100373.98
2019-05-30T03:44:28.043Z,100377.86
2019-05-30T03:47:06.780Z,100378.16
2019-05-30T03:49:46.021Z,100380.19
2019-05-30T03:52:21.863Z,100379.48
2019-05-30T03:54:55.756Z,100381.39
2019-05-30T03:57:34.260Z,100382.02
2019-05-30T04:00:16.024Z,100378.70
2019-05-30T04:03:00.973Z,100380.13
2019-05-30T04:05:41.742Z,100382.09
2019-05-30T04:08:19.696Z,100382.92
2019-05-30T04:10:58.442Z,100380.58
2019-05-30T04:13:51.991Z,100378.23
2019-05-30T04:16:26.212Z,100380.10
2019-05-30T04:19:00.644Z,100387.02
2019-05-30T04:21:34.282Z,100390.55
2019-05-30T04:24:09.788Z,100395.50
2019-05-30T04:26:44.710Z,100387.64
2019-05-30T04:29:19.116Z,100385.66
2019-05-30T04:31:53.366Z,100381.41
2019-05-30T04:34:27.560Z,100382.34
2019-05-30T04:37:02.442Z,100391.00
2019-05-30T04:39:36.137Z,100394.09
2019-05-30T04:42:11.340Z,100396.30
2019-05-30T04:44:45.903Z,100393.70
2019-05-30T04:47:20.792Z,100395.88
2019-05-30T04:49:55.032Z,100394.20
2019-05-30T04:52:29.273Z,100397.07
2019-05-30T04:55:03.047Z,100398.02
2019-05-30T04:57:36.753Z,100393.02
2019-05-30T05:00:12.984Z,100399.73
2019-05-30T05:02:46.416Z,100398.23
2019-05-30T05:05:26.550Z,100399.11
2019-05-30T05:07:56.501Z,100397.42
2019-05-30T05:10:30.339Z,100400.55
2019-05-30T05:13:04.632Z,100400.04
2019-05-30T05:15:38.851Z,100397.71
2019-05-30T05:18:12.914Z,100403.17
2019-05-30T05:20:45.300Z,100402.16
2019-05-30T05:23:19.398Z,100407.81
2019-05-30T05:26:00.772Z,100409.48
2019-05-30T05:28:27.214Z,100413.34
2019-05-30T05:30:59.595Z,100418.99
2019-05-30T05:33:32.645Z,100422.78
2019-05-30T05:36:05.542Z,100426.47
2019-05-30T05:38:37.633Z,100425.80
2019-05-30T05:41:10.537Z,100432.34
2019-05-30T05:43:42.523Z,100423.09
2019-05-30T05:46:16.325Z,100423.60
2019-05-30T05:48:49.441Z,100425.12
2019-05-30T05:51:22.753Z,100423.86
2019-05-30T05:53:55.485Z,100432.16
2019-05-30T05:56:29.158Z,100429.81
2019-05-30T05:59:02.278Z,100427.88
2019-05-30T06:01:35.983Z,100430.55
2019-05-30T06:04:13.238Z,100429.38
2019-05-30T06:06:44.516Z,100431.88
2019-05-30T06:09:18.717Z,100438.84
2019-05-30T06:11:52.560Z,100440.77
2019-05-30T06:14:28.037Z,100445.40
2019-05-30T06:17:02.697Z,100443.02
2019-05-30T06:19:45.939Z,100458.39
2019-05-30T06:22:12.777Z,100463.99
2019-05-30T06:24:47.596Z,100458.45
2019-05-30T06:27:21.942Z,100454.91
2019-05-30T06:29:55.251Z,100458.92
2019-05-30T06:32:28.946Z,100457.66
2019-05-30T06:35:03.144Z,100465.53
2019-05-30T06:37:36.870Z,100468.46
2019-05-30T06:40:11.400Z,100471.12
2019-05-30T06:42:45.147Z,100470.59
2019-05-30T06:45:20.862Z,100472.73
2019-05-30T06:47:55.167Z,100475.05
2019-05-30T06:50:29.249Z,100474.13
2019-05-30T06:53:02.270Z,100468.30
2019-05-30T06:55:35.488Z,100476.12
2019-05-30T06:58:08.523Z,100481.70
2019-05-30T07:00:43.772Z,100479.68
2019-05-30T07:03:17.533Z,100478.16
2019-05-30T07:05:51.523Z,100483.51
2019-05-30T07:08:26.480Z,100485.85
2019-05-30T07:11:00.215Z,100487.18
2019-05-30T07:13:33.743Z,100489.36
2019-05-30T07:16:08.318Z,100492.44
2019-05-30T07:18:42.114Z,100483.23
2019-05-30T07:21:15.412Z,100486.23
2019-05-30T07:23:48.817Z,100484.25
2019-05-30T07:26:23.733Z,100488.61
2019-05-30T07:29:00.524Z,100489.50
2019-05-30T07:31:34.264Z,100490.69
2019-05-30T07:34:07.989Z,100484.84
2019-05-30T07:36:42.147Z,100484.61
2019-05-30T07:39:16.027Z,100486.00
2019-05-30T07:42:05.334Z,100490.69
2019-05-30T07:44:25.307Z,100486.72
2019-05-30T07:46:59.503Z,100485.05
2019-05-30T07:49:34.632Z,100487.27
2019-05-30T07:52:09.074Z,100481.81
2019-05-30T07:54:43.226Z,100483.05
2019-05-30T07:57:17.610Z,100482.52
2019-05-30T07:59:51.952Z,100477.10
2019-05-30T08:02:27.406Z,100483.31
2019-05-30T08:05:01.504Z,100483.50
2019-05-30T08:07:35.176Z,100488.02
2019-05-30T08:10:09.030Z,100488.25
2019-05-30T08:12:43.203Z,100481.56
2019-05-30T08:15:17.244Z,100489.20
2019-05-30T08:17:51.449Z,100483.20
2019-05-30T08:20:24.460Z,100488.64
2019-05-30T08:22:58.751Z,100480.27
2019-05-30T08:25:32.553Z,100487.05
2019-05-30T08:28:06.373Z,100491.05
2019-05-30T08:30:38.842Z,100490.38
2019-05-30T08:33:13.078Z,100489.86
2019-05-30T08:35:49.790Z,100492.06
2019-05-30T08:38:22.595Z,100491.20
2019-05-30T08:40:55.807Z,100484.45
2019-05-30T08:43:29.647Z,100490.09
2019-05-30T08:46:03.863Z,100480.75
2019-05-30T08:48:38.212Z,100483.23
2019-05-30T08:51:12.660Z,100477.56
2019-05-30T08:53:46.988Z,100473.25
2019-05-30T08:56:21.227Z,100468.55
2019-05-30T08:58:55.420Z,100468.72
2019-05-30T09:01:29.205Z,100469.22
2019-05-30T09:04:02.611Z,100465.93
2019-05-30T09:06:35.921Z,100466.48
2019-05-30T09:09:10.239Z,100465.58
2019-05-30T09:11:44.579Z,100460.98
2019-05-30T09:14:18.766Z,100458.01
2019-05-30T09:16:53.021Z,100455.80
2019-05-30T09:19:26.788Z,100454.11
2019-05-30T09:22:00.597Z,100451.81
2019-05-30T09:24:34.729Z,100449.48
2019-05-30T09:27:08.235Z,100442.62
2019-05-30T09:29:42.909Z,100443.03
2019-05-30T09:32:17.260Z,100443.27
2019-05-30T09:34:51.572Z,100440.09
2019-05-30T09:37:25.816Z,100433.28
2019-05-30T09:40:00.031Z,100446.16
2019-05-30T09:42:34.096Z,100440.59
2019-05-30T09:45:09.939Z,100435.20
2019-05-30T09:47:45.167Z,100448.17
2019-05-30T09:50:18.594Z,100441.66
2019-05-30T09:52:52.869Z,100437.27
2019-05-30T09:55:26.126Z,100439.12
2019-05-30T09:57:58.973Z,100430.67
2019-05-30T10:00:34.357Z,100427.42
2019-05-30T10:03:09.211Z,100425.37
2019-05-30T10:05:44.791Z,100427.73
2019-05-30T10:08:18.541Z,100423.77
2019-05-30T10:10:53.519Z,100421.13
2019-05-30T10:13:27.898Z,100419.64
2019-05-30T10:16:02.242Z,100423.95
2019-05-30T10:18:36.756Z,100420.97
2019-05-30T10:21:10.031Z,100422.70
2019-05-30T10:23:45.715Z,100414.82
2019-05-30T10:26:19.144Z,100414.73
2019-05-30T10:28:53.324Z,100415.30
2019-05-30T10:31:27.708Z,100406.56
2019-05-30T10:34:01.821Z,100409.22
2019-05-30T10:36:43.829Z,100406.68
2019-05-30T10:39:10.901Z,100404.88
2019-05-30T10:41:44.605Z,100411.75
2019-05-30T10:44:20.355Z,100412.71
2019-05-30T10:46:54.709Z,100411.49
2019-05-30T10:49:34.670Z,100414.95
2019-05-30T10:52:04.643Z,100408.91
2019-05-30T10:54:39.785Z,100409.45
2019-05-30T10:57:13.993Z,100407.84
2019-05-30T10:59:48.902Z,100410.03
2019-05-30T11:02:24.169Z,100403.93
2019-05-30T11:04:57.943Z,100402.27
2019-05-30T11:08:00.568Z,100396.23
2019-05-30T11:10:35.674Z,100392.96
2019-05-30T11:13:10.415Z,100388.45
2019-05-30T11:15:44.526Z,100391.98
2019-05-30T11:18:18.983Z,100393.09
2019-05-30T11:20:54.069Z,100386.27
2019-05-30T11:23:28.363Z,100385.85
2019-05-30T11:26:02.701Z,100379.03
2019-05-30T11:28:36.471Z,100376.80
2019-05-30T11:31:10.314Z,100377.75
2019-05-30T11:33:44.523Z,100377.08
2019-05-30T11:36:18.729Z,100367.44
2019-05-30T11:38:53.670Z,100367.38
2019-05-30T11:41:27.810Z,100363.47
2019-05-30T11:44:04.127Z,100364.69
2019-05-30T11:46:37.477Z,100358.38
2019-05-30T11:49:11.549Z,100356.77
2019-05-30T11:51:45.408Z,100353.19
2019-05-30T11:54:19.567Z,100353.00
2019-05-30T11:56:54.021Z,100350.39
2019-05-30T11:59:26.807Z,100346.04
2019-05-30T12:02:00.533Z,100352.13
2019-05-30T12:04:34.228Z,100343.97
2019-05-30T12:07:07.522Z,100344.19
2019-05-30T12:09:40.853Z,100333.05
2019-05-30T12:12:14.760Z,100328.23
2019-05-30T12:14:47.174Z,100328.75
2019-05-30T12:17:19.229Z,100334.67
2019-05-30T12:19:51.431Z,100327.66
2019-05-30T12:22:25.344Z,100317.53
2019-05-30T12:24:59.788Z,100320.91
2019-05-30T12:27:34.068Z,100316.42
2019-05-30T12:30:07.081Z,100316.55
2019-05-30T12:32:39.950Z,100301.83
2019-05-30T12:35:14.753Z,100298.86
2019-05-30T12:37:55.045Z,100297.05
2019-05-30T12:40:23.225Z,100297.20
2019-05-30T12:42:58.934Z,100294.34
2019-05-30T12:45:30.663Z,100292.17
2019-05-30T12:48:04.633Z,100290.64
2019-05-30T12:50:38.214Z,100289.33
2019-05-30T12:53:12.419Z,100289.88
2019-05-30T12:55:46.054Z,100287.10
2019-05-30T12:58:19.948Z,100291.05
2019-05-30T13:00:54.658Z,100285.89
2019-05-30T13:03:28.027Z,100292.25
2019-05-30T13:06:03.400Z,100291.23
2019-05-30T13:08:37.958Z,100291.77
2019-05-30T13:11:11.664Z,100289.28
2019-05-30T13:13:45.537Z,100293.83
2019-05-30T13:16:19.788Z,100288.29
2019-05-30T13:18:53.564Z,100296.13
2019-05-30T13:21:27.683Z,100295.16
2019-05-30T13:24:01.881Z,100295.19
2019-05-30T13:26:34.258Z,100291.14
2019-05-30T13:29:06.744Z,100287.45
2019-05-30T13:31:40.140Z,100289.59
2019-05-30T13:34:12.521Z,100286.54
2019-05-30T13:36:44.456Z,100286.98
2019-05-30T13:39:17.007Z,100286.83
2019-05-30T13:41:50.201Z,100286.23
2019-05-30T13:44:23.869Z,100279.91
2019-05-30T13:46:58.408Z,100274.80
2019-05-30T13:49:32.723Z,100273.39
2019-05-30T13:52:07.275Z,100267.23
2019-05-30T13:54:41.584Z,100271.85
2019-05-30T13:57:15.338Z,100270.95
2019-05-30T13:59:49.097Z,100269.85
2019-05-30T14:02:22.980Z,100262.55
2019-05-30T14:04:57.167Z,100262.83
2019-05-30T14:07:30.968Z,100266.95
2019-05-30T14:10:04.692Z,100265.81
2019-05-30T14:12:37.972Z,100269.75
2019-05-30T14:15:13.917Z,100271.41
2019-05-30T14:17:48.012Z,100267.09
2019-05-30T14:20:23.278Z,100269.86
2019-05-30T14:22:57.088Z,100273.33
2019-05-30T14:25:30.793Z,100272.57
2019-05-30T14:28:05.588Z,100267.06
2019-05-30T14:30:40.147Z,100262.50
2019-05-30T14:33:14.499Z,100259.91
2019-05-30T14:35:48.224Z,100256.27
2019-05-30T14:38:22.385Z,100259.84
2019-05-30T14:40:55.885Z,100253.84
2019-05-30T14:43:30.228Z,100252.30
2019-05-30T14:46:04.346Z,100254.75
2019-05-30T14:48:37.266Z,100251.56
2019-05-30T14:51:12.847Z,100251.95
2019-05-30T14:53:47.030Z,100248.14
2019-05-30T14:56:20.351Z,100247.48
2019-05-30T14:58:54.117Z,100243.16
2019-05-30T15:01:27.456Z,100237.54
2019-05-30T15:04:01.709Z,100238.27
2019-05-30T15:06:36.592Z,100242.36
2019-05-30T15:09:17.723Z,100243.23
2019-05-30T15:11:46.788Z,100246.45
2019-05-30T15:14:21.741Z,100241.97
2019-05-30T15:16:55.466Z,100238.92
2019-05-30T15:19:48.020Z,100235.98
2019-05-30T15:22:22.310Z,100230.32
2019-05-30T15:24:56.014Z,100230.14
2019-05-30T15:27:30.287Z,100234.16
2019-05-30T15:30:04.397Z,100238.35
2019-05-30T15:32:38.659Z,100238.90
2019-05-30T15:35:12.828Z,100235.61
2019-05-30T15:37:47.154Z,100236.80
2019-05-30T15:40:22.612Z,100238.47
2019-05-30T15:42:56.692Z,100238.00
2019-05-30T15:45:31.033Z,100234.44
2019-05-30T15:48:04.122Z,100231.06
2019-05-30T15:50:38.228Z,100229.92
2019-05-30T15:53:13.116Z,100232.30
2019-05-30T15:55:47.414Z,100229.39
2019-05-30T15:58:21.628Z,100227.93
2019-05-30T16:00:55.414Z,100228.47
2019-05-30T16:03:30.486Z,100229.52
2019-05-30T16:06:03.687Z,100228.52
2019-05-30T16:08:37.963Z,100228.65
2019-05-30T16:11:12.741Z,100224.42
2019-05-30T16:13:46.717Z,100218.95
2019-05-30T16:16:33.783Z,100219.53
2019-05-30T16:18:56.227Z,100220.59
2019-05-30T16:21:30.128Z,100219.89
2019-05-30T16:24:04.995Z,100220.09
2019-05-30T16:26:38.422Z,100217.72
2019-05-30T16:29:11.941Z,100218.27
2019-05-30T16:31:46.214Z,100222.01
2019-05-30T16:34:20.312Z,100225.50
2019-05-30T16:36:54.258Z,100224.07
2019-05-30T16:39:28.351Z,100227.09
2019-05-30T16:42:02.163Z,100231.16
2019-05-30T16:44:35.964Z,100227.81
2019-05-30T16:47:09.678Z,100230.95
2019-05-30T16:49:43.477Z,100230.71
2019-05-30T16:52:19.126Z,100232.23
2019-05-30T16:54:56.681Z,100234.06
2019-05-30T16:57:28.672Z,100232.81
2019-05-30T17:00:02.406Z,100236.38
2019-05-30T17:02:36.633Z,100235.44
2019-05-30T17:05:10.236Z,100235.33
2019-05-30T17:07:44.310Z,100238.55
2019-05-30T17:10:27.685Z,100233.17
2019-05-30T17:12:55.321Z,100238.15
2019-05-30T17:15:29.608Z,100232.15
2019-05-30T17:18:04.148Z,100240.03
2019-05-30T17:20:39.293Z,100238.56
2019-05-30T17:23:13.237Z,100239.61
2019-05-30T17:25:49.364Z,100241.81
2019-05-30T17:28:24.352Z,100243.22
2019-05-30T17:30:57.676Z,100250.23
2019-05-30T17:33:31.557Z,100247.16
2019-05-30T17:36:05.827Z,100247.36
2019-05-30T17:38:40.041Z,100249.40
2019-05-30T17:41:13.430Z,100252.14
2019-05-30T17:43:47.243Z,100249.78
2019-05-30T17:46:21.438Z,100249.89
2019-05-30T17:48:55.224Z,100250.61
2019-05-30T17:51:30.035Z,100248.69
2019-05-30T17:54:04.326Z,100253.19
2019-05-30T17:56:38.226Z,100250.55
2019-05-30T17:59:11.571Z,100253.89
2019-05-30T18:01:44.524Z,100251.38
2019-05-30T18:04:16.944Z,100251.38
2019-05-30T18:06:49.006Z,100253.94
2019-05-30T18:09:22.863Z,100257.64
2019-05-30T18:11:56.208Z,100255.92
2019-05-30T18:14:29.252Z,100256.91
2019-05-30T18:17:02.269Z,100259.34
2019-05-30T18:19:36.513Z,100266.91
2019-05-30T18:22:10.362Z,100274.79
2019-05-30T18:24:44.118Z,100272.75
2019-05-30T18:27:17.853Z,100273.03
2019-05-30T18:29:52.099Z,100280.97
2019-05-30T18:32:26.294Z,100279.74
2019-05-30T18:34:59.606Z,100283.66
2019-05-30T18:37:33.922Z,100283.73
2019-05-30T18:40:07.914Z,100283.34
2019-05-30T18:42:41.366Z,100290.84
2019-05-30T18:45:14.605Z,100286.47
2019-05-30T18:47:48.388Z,100285.27
2019-05-30T18:50:20.974Z,100288.88
2019-05-30T18:52:53.483Z,100294.95
2019-05-30T18:55:26.554Z,100296.56
2019-05-30T18:57:59.607Z,100298.98
2019-05-30T19:00:33.212Z,100304.71
2019-05-30T19:03:08.044Z,100302.20
2019-05-30T19:05:41.560Z,100305.64
2019-05-30T19:08:14.500Z,100310.34
2019-05-30T19:10:47.493Z,100310.45
2019-05-30T19:13:20.451Z,100316.80
2019-05-30T19:15:54.985Z,100316.71
2019-05-30T19:18:27.866Z,100318.81
2019-05-30T19:21:01.233Z,100320.33
2019-05-30T19:23:37.891Z,100314.33
2019-05-30T19:26:11.277Z,100319.76
2019-05-30T19:28:44.541Z,100319.81
2019-05-30T19:31:19.221Z,100322.92
2019-05-30T19:33:52.655Z,100321.87
2019-05-30T19:36:26.832Z,100322.43
2019-05-30T19:38:59.423Z,100330.41
2019-05-30T19:41:48.530Z,100332.11
2019-05-30T19:44:07.039Z,100335.32
2019-05-30T19:46:40.363Z,100336.02
2019-05-30T19:49:12.891Z,100336.77
2019-05-30T19:51:45.409Z,100339.30
2019-05-30T19:54:19.056Z,100338.55
2019-05-30T19:56:52.469Z,100340.30
2019-05-30T19:59:25.821Z,100336.32
2019-05-30T20:01:58.319Z,100338.54
2019-05-30T20:04:30.305Z,100342.30
2019-05-30T20:07:03.331Z,100339.97
2019-05-30T20:09:35.292Z,100342.59
2019-05-30T20:12:09.199Z,100343.94
2019-05-30T20:14:42.568Z,100347.34
2019-05-30T20:17:15.619Z,100348.91
2019-05-30T20:19:50.004Z,100339.95
2019-05-30T20:22:22.015Z,100351.51
2019-05-30T20:24:54.057Z,100349.88
2019-05-30T20:27:27.658Z,100351.98
2019-05-30T20:30:01.053Z,100354.22
2019-05-30T20:32:34.412Z,100360.22
2019-05-30T20:35:07.470Z,100363.33
2019-05-30T20:37:40.688Z,100365.87
2019-05-30T20:40:15.907Z,100369.19
2019-05-30T20:42:48.782Z,100365.89
2019-05-30T20:45:21.872Z,100371.65
2019-05-30T20:47:54.707Z,100374.30
2019-05-30T20:50:27.828Z,100377.39
2019-05-30T20:53:02.223Z,100376.66
2019-05-30T20:55:36.407Z,100379.33
2019-05-30T20:58:09.169Z,100380.25
2019-05-30T21:00:43.852Z,100372.55
2019-05-30T21:03:18.446Z,100381.98
2019-05-30T21:05:52.460Z,100382.55
2019-05-30T21:08:27.671Z,100385.52
2019-05-30T21:11:02.735Z,100387.63
2019-05-30T21:13:38.197Z,100388.88
2019-05-30T21:16:14.769Z,100388.48
2019-05-30T21:18:50.952Z,100389.95
2019-05-30T21:21:25.118Z,100389.33
2019-05-30T21:23:59.217Z,100389.16
2019-05-30T21:26:32.992Z,100385.92
2019-05-30T21:29:06.811Z,100385.63
2019-05-30T21:31:41.492Z,100385.48
2019-05-30T21:34:15.727Z,100388.66
2019-05-30T21:36:49.415Z,100389.68
2019-05-30T21:39:23.619Z,100385.56
2019-05-30T21:41:57.830Z,100389.77
2019-05-30T21:44:32.066Z,100391.30
2019-05-30T21:47:06.374Z,100400.14
2019-05-30T21:49:40.910Z,100404.90
2019-05-30T21:52:15.332Z,100406.16
2019-05-30T21:54:50.152Z,100411.55
2019-05-30T21:57:24.698Z,100405.61
2019-05-30T21:59:59.008Z,100405.73
2019-05-30T22:02:33.316Z,100403.57
2019-05-30T22:05:06.801Z,100404.47
2019-05-30T22:07:40.951Z,100398.11
2019-05-30T22:10:14.703Z,100398.94
2019-05-30T22:12:49.460Z,100398.48
2019-05-30T22:15:24.280Z,100404.59
2019-05-30T22:17:57.664Z,100411.38
2019-05-30T22:20:31.369Z,100410.84
2019-05-30T22:23:05.595Z,100413.80
2019-05-30T22:25:39.808Z,100408.88
2019-05-30T22:28:12.698Z,100415.21
2019-05-30T22:30:46.418Z,100413.79
2019-05-30T22:33:20.137Z,100413.80
2019-05-30T22:35:53.887Z,100412.73
2019-05-30T22:38:28.250Z,100412.91
2019-05-30T22:41:02.029Z,100412.27
2019-05-30T22:43:35.847Z,100409.36
2019-05-30T22:46:09.521Z,100406.59
2019-05-30T22:48:44.401Z,100412.17
2019-05-30T22:51:18.831Z,100408.38
2019-05-30T22:53:53.230Z,100405.23
2019-05-30T22:56:27.634Z,100410.15
2019-05-30T22:59:01.874Z,100414.23
2019-05-30T23:01:35.532Z,100405.68
2019-05-30T23:04:09.776Z,100407.96
2019-05-30T23:06:43.563Z,100406.61
2019-05-30T23:09:16.902Z,100409.50
2019-05-30T23:11:51.664Z,100413.37
2019-05-30T23:14:25.814Z,100414.91
2019-05-30T23:16:59.618Z,100413.06
2019-05-30T23:19:33.240Z,100412.14
2019-05-30T23:22:06.520Z,100410.91
2019-05-30T23:24:40.538Z,100412.95
2019-05-30T23:27:14.421Z,100411.77
2019-05-30T23:29:48.015Z,100416.31
2019-05-30T23:32:22.233Z,100420.05
2019-05-30T23:34:56.487Z,100415.18
2019-05-30T23:37:30.333Z,100414.88
2019-05-30T23:40:03.667Z,100411.01
2019-05-30T23:42:37.840Z,100408.87
2019-05-30T23:45:12.515Z,100405.11
2019-05-30T23:47:46.755Z,100406.30
2019-05-30T23:50:21.136Z,100403.98
2019-05-30T23:52:56.258Z,100406.12
2019-05-30T23:55:30.077Z,100400.36
2019-05-30T23:58:04.211Z,100401.97
